createdAt,value
2022-11-04T00:00:16.840Z,6.30
2022-11-04T00:02:43.884Z,6.10
2022-11-04T00:06:00.693Z,6.40
2022-11-04T00:08:27.569Z,6.20
2022-11-04T00:11:17.335Z,6.60
2022-11-04T00:13:44.879Z,6.30
2022-11-04T00:16:30.499Z,6.40
2022-11-04T00:18:57.325Z,6.20
2022-11-04T00:21:42.660Z,6.20
2022-11-04T00:24:50.301Z,6.00
2022-11-04T00:27:38.419Z,6.40
2022-11-04T00:30:08.495Z,6.40
2022-11-04T00:35:22.293Z,6.30
2022-11-04T00:37:49.151Z,6.40
2022-11-04T00:40:16.706Z,6.40
2022-11-04T00:42:45.488Z,6.50
2022-11-04T00:45:12.657Z,6.30
2022-11-04T00:50:07.217Z,6.40
2022-11-04T00:52:34.041Z,6.10
2022-11-04T00:55:00.935Z,6.30
2022-11-04T00:57:27.745Z,6.50
2022-11-04T00:59:54.532Z,6.30
2022-11-04T01:04:48.915Z,6.60
2022-11-04T01:07:15.859Z,6.40
2022-11-04T01:09:42.708Z,6.50
2022-11-04T01:12:09.513Z,6.50
2022-11-04T01:14:37.677Z,6.30
2022-11-04T01:19:32.085Z,6.60
2022-11-04T01:21:58.912Z,6.50
2022-11-04T01:24:25.800Z,6.30
2022-11-04T01:26:52.649Z,6.20
2022-11-04T01:29:19.430Z,6.10
2022-11-04T01:31:46.272Z,6.00
2022-11-04T01:34:13.154Z,6.20
2022-11-04T01:36:40.140Z,6.00
2022-11-04T01:39:07.004Z,6.20
2022-11-04T01:41:34.710Z,6.00
2022-11-04T01:46:46.357Z,6.30
2022-11-04T01:49:33.632Z,6.00
2022-11-04T01:52:08.405Z,6.00
2022-11-04T01:54:37.082Z,6.10
2022-11-04T01:57:08.695Z,6.20
2022-11-04T01:59:38.611Z,6.30
2022-11-04T02:02:05.930Z,6.20
2022-11-04T02:07:10.330Z,6.00
2022-11-04T02:09:39.583Z,6.30
2022-11-04T02:14:54.124Z,6.00
2022-11-04T02:17:36.613Z,6.10
2022-11-04T02:20:26.676Z,6.00
2022-11-04T02:23:22.016Z,6.00
2022-11-04T02:26:13.688Z,5.80
2022-11-04T02:28:49.550Z,5.70
2022-11-04T02:31:31.378Z,5.90
2022-11-04T02:34:23.969Z,5.90
2022-11-04T02:37:43.380Z,6.10
2022-11-04T02:40:10.489Z,5.90
2022-11-04T02:43:15.460Z,5.80
2022-11-04T02:45:46.795Z,5.80
2022-11-04T02:48:31.135Z,5.60
2022-11-04T02:51:19.847Z,5.80
2022-11-04T02:54:12.389Z,6.00
2022-11-04T02:56:50.897Z,5.70
2022-11-04T02:59:36.427Z,5.90
2022-11-04T03:02:07.978Z,6.20
2022-11-04T03:04:40.426Z,6.70
2022-11-04T03:10:01.009Z,6.70
2022-11-04T03:12:35.409Z,5.70
2022-11-04T03:15:07.852Z,6.00
2022-11-04T03:17:43.079Z,5.60
2022-11-04T03:20:17.654Z,5.70
2022-11-04T03:25:12.028Z,5.70
2022-11-04T03:27:47.825Z,5.80
2022-11-04T03:33:21.625Z,5.90
2022-11-04T03:35:48.593Z,5.90
2022-11-04T03:38:16.606Z,5.60
2022-11-04T03:43:27.326Z,5.90
2022-11-04T03:45:54.441Z,5.80
2022-11-04T03:48:22.140Z,5.70
2022-11-04T03:50:49.909Z,6.00
2022-11-04T03:53:22.083Z,5.90
2022-11-04T03:56:07.471Z,5.90
2022-11-04T03:59:00.350Z,6.00
2022-11-04T04:02:06.338Z,5.80
2022-11-04T04:04:38.326Z,5.70
2022-11-04T04:07:16.365Z,5.90
2022-11-04T04:10:33.248Z,6.20
2022-11-04T04:13:06.864Z,6.00
2022-11-04T04:16:03.067Z,5.80
2022-11-04T04:18:40.176Z,5.70
2022-11-04T04:21:11.563Z,5.60
2022-11-04T04:23:58.921Z,5.90
2022-11-04T04:26:45.324Z,5.90
2022-11-04T04:29:12.265Z,5.60
2022-11-04T04:31:49.805Z,6.00
2022-11-04T04:34:37.003Z,5.70
2022-11-04T04:37:23.123Z,6.20
2022-11-04T04:40:17.555Z,6.10
2022-11-04T04:43:06.543Z,6.20
2022-11-04T04:45:36.755Z,6.20
2022-11-04T04:48:04.687Z,6.20
2022-11-04T04:50:37.079Z,6.00
2022-11-04T04:53:04.394Z,6.30
2022-11-04T04:55:31.743Z,5.80
2022-11-04T04:57:59.417Z,6.30
2022-11-04T05:00:26.696Z,6.30
2022-11-04T05:02:53.520Z,6.30
2022-11-04T05:05:20.384Z,6.20
2022-11-04T05:07:47.740Z,6.60
2022-11-04T05:10:16.351Z,6.20
2022-11-04T05:13:01.884Z,6.40
2022-11-04T05:15:29.829Z,6.30
2022-11-04T05:18:02.003Z,6.40
2022-11-04T05:20:30.598Z,6.40
2022-11-04T05:22:57.607Z,6.10
2022-11-04T05:25:24.473Z,6.30
2022-11-04T05:27:51.389Z,6.30
2022-11-04T05:30:18.442Z,6.20
2022-11-04T05:32:45.325Z,6.40
2022-11-04T05:35:12.300Z,6.20
2022-11-04T05:40:06.906Z,6.40
2022-11-04T05:47:28.211Z,6.50
2022-11-04T05:57:17.048Z,6.30
2022-11-04T05:59:43.881Z,6.20
2022-11-04T06:07:05.593Z,6.50
2022-11-04T06:12:16.365Z,6.30
2022-11-04T06:14:44.331Z,6.60
2022-11-04T06:17:19.393Z,6.50
2022-11-04T06:19:47.231Z,6.50
2022-11-04T06:22:16.908Z,6.10
2022-11-04T06:24:44.155Z,6.10
2022-11-04T06:27:11.884Z,6.60
2022-11-04T06:32:15.490Z,6.60
2022-11-04T06:34:42.561Z,6.60
2022-11-04T06:37:10.065Z,6.50
2022-11-04T06:42:05.491Z,6.70
2022-11-04T06:44:34.497Z,6.80
2022-11-04T06:47:01.922Z,6.50
2022-11-04T06:51:56.007Z,6.60
2022-11-04T06:59:19.972Z,6.70
2022-11-04T07:01:47.711Z,6.80
2022-11-04T07:06:44.325Z,6.80
2022-11-04T07:09:13.794Z,6.90
2022-11-04T07:11:41.365Z,7.00
2022-11-04T07:14:09.124Z,7.00
2022-11-04T07:16:36.351Z,7.10
2022-11-04T07:19:03.823Z,7.10
2022-11-04T07:21:30.983Z,7.10
2022-11-04T07:23:58.113Z,7.20
2022-11-04T07:26:24.967Z,7.20
2022-11-04T07:28:51.831Z,7.30
2022-11-04T07:31:18.773Z,7.20
2022-11-04T07:33:50.140Z,7.30
2022-11-04T07:36:18.294Z,7.50
2022-11-04T07:38:45.593Z,7.50
2022-11-04T07:41:14.178Z,7.60
2022-11-04T07:43:41.113Z,7.70
2022-11-04T07:46:11.353Z,7.70
2022-11-04T07:48:39.065Z,7.70
2022-11-04T07:51:08.863Z,7.80
2022-11-04T07:53:36.260Z,8.00
2022-11-04T07:56:08.144Z,8.20
2022-11-04T07:58:35.259Z,8.10
2022-11-04T08:01:07.153Z,8.30
2022-11-04T08:03:35.552Z,8.20
2022-11-04T08:06:04.539Z,8.30
2022-11-04T08:08:31.586Z,8.30
2022-11-04T08:11:19.570Z,8.40
2022-11-04T08:13:47.174Z,8.60
2022-11-04T08:16:17.073Z,8.50
2022-11-04T08:18:44.202Z,8.50
2022-11-04T08:21:11.900Z,8.60
2022-11-04T08:23:38.798Z,8.60
2022-11-04T08:26:15.008Z,8.60
2022-11-04T08:28:41.916Z,8.70
2022-11-04T08:31:13.903Z,8.80
2022-11-04T08:33:41.702Z,8.80
2022-11-04T08:36:17.803Z,8.90
2022-11-04T08:38:45.335Z,8.90
2022-11-04T08:41:13.916Z,9.00
2022-11-04T08:43:40.969Z,9.10
2022-11-04T08:46:10.344Z,9.00
2022-11-04T08:48:38.632Z,9.20
2022-11-04T08:51:08.114Z,9.30
2022-11-04T08:53:35.007Z,9.30
2022-11-04T08:56:13.521Z,9.40
2022-11-04T08:58:41.056Z,9.50
2022-11-04T09:01:08.394Z,9.20
2022-11-04T09:03:38.532Z,9.40
2022-11-04T09:06:12.869Z,9.50
2022-11-04T09:08:39.834Z,9.50
2022-11-04T09:11:10.099Z,9.50
2022-11-04T09:13:39.845Z,9.40
2022-11-04T09:16:08.282Z,9.40
2022-11-04T09:18:35.139Z,9.40
2022-11-04T09:21:03.628Z,9.30
2022-11-04T09:23:31.058Z,9.50
2022-11-04T09:25:59.597Z,9.60
2022-11-04T09:28:26.509Z,9.50
2022-11-04T09:30:53.327Z,9.70
2022-11-04T09:33:20.184Z,9.80
2022-11-04T09:35:56.383Z,9.80
2022-11-04T09:38:23.757Z,9.90
2022-11-04T09:40:51.481Z,10.10
2022-11-04T09:43:32.413Z,10.40
2022-11-04T09:46:01.209Z,10.50
2022-11-04T09:48:55.236Z,10.40
2022-11-04T09:51:52.685Z,10.60
2022-11-04T09:54:46.873Z,10.80
2022-11-04T09:57:18.417Z,10.70
2022-11-04T09:59:46.534Z,10.90
2022-11-04T10:02:51.440Z,11.40
2022-11-04T10:05:39.766Z,11.50
2022-11-04T10:08:39.970Z,11.30
2022-11-04T10:11:38.065Z,11.40
2022-11-04T10:14:24.987Z,11.60
2022-11-04T10:17:23.828Z,12.70
2022-11-04T10:20:13.778Z,13.70
2022-11-04T10:22:49.649Z,14.20
2022-11-04T10:25:23.317Z,14.40
2022-11-04T10:27:51.760Z,14.90
2022-11-04T10:30:21.606Z,15.90
2022-11-04T10:33:11.829Z,16.00
2022-11-04T10:35:45.024Z,15.60
2022-11-04T10:38:31.124Z,16.10
2022-11-04T10:41:00.544Z,15.90
2022-11-04T10:43:39.305Z,15.20
2022-11-04T10:46:24.359Z,15.20
2022-11-04T10:49:17.202Z,15.60
2022-11-04T10:51:45.439Z,16.00
2022-11-04T10:54:12.790Z,17.10
2022-11-04T10:56:47.770Z,18.10
2022-11-04T10:59:20.756Z,18.60
2022-11-04T11:01:55.403Z,18.70
2022-11-04T11:04:29.703Z,18.60
2022-11-04T11:06:58.722Z,18.50
2022-11-04T11:09:32.373Z,17.80
2022-11-04T11:12:29.461Z,18.10
2022-11-04T11:14:53.736Z,17.90
2022-11-04T11:17:21.850Z,18.20
2022-11-04T11:19:54.918Z,18.30
2022-11-04T11:22:31.765Z,17.90
2022-11-04T11:25:36.787Z,18.30
2022-11-04T11:28:10.372Z,18.20
2022-11-04T11:30:47.052Z,17.50
2022-11-04T11:33:25.086Z,17.70
2022-11-04T11:36:13.596Z,17.50
2022-11-04T11:38:56.240Z,19.10
2022-11-04T11:41:28.962Z,20.20
2022-11-04T11:43:56.407Z,19.80
2022-11-04T11:46:26.539Z,20.40
2022-11-04T11:48:57.801Z,20.50
2022-11-04T11:51:32.092Z,20.40
2022-11-04T11:54:26.962Z,21.00
2022-11-04T12:03:01.112Z,19.60
2022-11-04T12:11:27.913Z,18.30
2022-11-04T12:14:05.775Z,18.30
2022-11-04T12:17:10.250Z,17.70
2022-11-04T12:19:41.252Z,17.10
2022-11-04T12:22:22.106Z,17.90
2022-11-04T12:25:20.717Z,18.20
2022-11-04T12:28:17.474Z,18.30
2022-11-04T12:30:59.165Z,18.20
2022-11-04T12:33:41.837Z,17.50
2022-11-04T12:36:08.823Z,16.60
2022-11-04T12:38:38.691Z,15.60
2022-11-04T12:41:37.504Z,15.70
2022-11-04T12:44:04.297Z,15.50
2022-11-04T12:46:56.930Z,15.60
2022-11-04T12:49:47.509Z,15.20
2022-11-04T12:52:33.086Z,15.40
2022-11-04T12:55:43.586Z,15.20
2022-11-04T12:58:16.761Z,15.50
2022-11-04T13:00:48.404Z,15.50
2022-11-04T13:03:30.295Z,15.60
2022-11-04T13:06:10.594Z,15.60
2022-11-04T13:08:43.642Z,15.40
2022-11-04T13:11:28.854Z,15.60
2022-11-04T13:14:03.004Z,15.80
2022-11-04T13:16:35.076Z,15.50
2022-11-04T13:19:02.722Z,15.80
2022-11-04T13:21:35.562Z,15.90
2022-11-04T13:24:20.718Z,16.00
2022-11-04T13:26:47.779Z,15.60
2022-11-04T13:29:17.348Z,15.70
2022-11-04T13:31:55.588Z,15.50
2022-11-04T13:34:27.777Z,15.40
2022-11-04T13:36:57.361Z,15.30
2022-11-04T13:39:52.864Z,15.20
2022-11-04T13:42:25.314Z,14.90
2022-11-04T13:44:57.081Z,14.60
2022-11-04T13:47:38.006Z,14.50
2022-11-04T13:50:05.737Z,14.40
2022-11-04T13:52:33.943Z,14.30
2022-11-04T13:55:05.524Z,14.30
2022-11-04T13:57:57.634Z,14.30
2022-11-04T14:00:29.263Z,14.10
2022-11-04T14:03:01.163Z,13.90
2022-11-04T14:05:32.360Z,13.70
2022-11-04T14:08:02.478Z,13.70
2022-11-04T14:10:48.060Z,13.80
2022-11-04T14:13:41.530Z,13.50
2022-11-04T14:16:18.270Z,13.20
2022-11-04T14:18:47.510Z,13.10
2022-11-04T14:21:24.706Z,13.00
2022-11-04T14:23:57.245Z,12.90
2022-11-04T14:26:40.615Z,12.60
2022-11-04T14:29:09.732Z,12.30
2022-11-04T14:31:40.848Z,12.30
2022-11-04T14:34:08.510Z,12.20
2022-11-04T14:36:42.103Z,12.00
2022-11-04T14:39:11.909Z,12.00
2022-11-04T14:41:41.656Z,11.60
2022-11-04T14:44:30.722Z,11.60
2022-11-04T14:47:07.974Z,11.60
2022-11-04T14:49:39.542Z,11.60
2022-11-04T14:52:46.331Z,11.60
2022-11-04T14:55:22.696Z,11.60
2022-11-04T14:58:17.269Z,11.50
2022-11-04T15:00:50.210Z,11.40
2022-11-04T15:04:09.330Z,11.40
2022-11-04T15:06:12.850Z,11.30
2022-11-04T15:08:42.883Z,11.30
2022-11-04T15:11:17.643Z,11.30
2022-11-04T15:13:49.283Z,11.30
2022-11-04T15:16:25.775Z,11.20
2022-11-04T15:18:58.531Z,11.20
2022-11-04T15:21:26.026Z,11.10
2022-11-04T15:23:55.399Z,11.00
2022-11-04T15:26:29.184Z,11.00
2022-11-04T15:28:58.926Z,10.80
2022-11-04T15:31:31.041Z,10.60
2022-11-04T15:34:01.257Z,10.80
2022-11-04T15:36:32.049Z,10.80
2022-11-04T15:39:06.786Z,10.60
2022-11-04T15:42:00.860Z,10.70
2022-11-04T15:44:29.981Z,10.70
2022-11-04T15:47:02.516Z,10.70
2022-11-04T15:49:31.482Z,10.60
2022-11-04T15:52:31.061Z,10.70
2022-11-04T15:54:59.651Z,10.70
2022-11-04T15:57:33.441Z,10.60
2022-11-04T16:00:06.770Z,10.50
2022-11-04T16:02:39.273Z,10.50
2022-11-04T16:05:29.102Z,10.60
2022-11-04T16:08:13.344Z,10.50
2022-11-04T16:10:40.427Z,10.70
2022-11-04T16:13:16.265Z,10.70
2022-11-04T16:16:09.004Z,10.70
2022-11-04T16:18:39.633Z,10.70
2022-11-04T16:21:08.409Z,10.50
2022-11-04T16:23:46.823Z,10.50
2022-11-04T16:26:13.922Z,10.50
2022-11-04T16:28:42.352Z,10.50
2022-11-04T16:31:28.769Z,10.50
2022-11-04T16:33:55.719Z,10.50
2022-11-04T16:36:28.513Z,10.30
2022-11-04T16:39:04.852Z,10.40
2022-11-04T16:41:36.092Z,10.40
2022-11-04T16:44:05.108Z,10.40
2022-11-04T16:46:35.161Z,10.20
2022-11-04T16:49:02.065Z,10.20
2022-11-04T16:51:28.972Z,10.30
2022-11-04T16:53:55.859Z,10.30
2022-11-04T16:56:24.789Z,10.10
2022-11-04T16:58:53.273Z,10.20
2022-11-04T17:01:21.485Z,10.30
2022-11-04T17:03:48.423Z,10.40
2022-11-04T17:06:19.062Z,10.30
2022-11-04T17:08:46.200Z,10.30
2022-11-04T17:11:13.200Z,10.10
2022-11-04T17:13:40.369Z,10.10
2022-11-04T17:16:10.454Z,10.10
2022-11-04T17:18:37.320Z,10.00
2022-11-04T17:21:09.460Z,10.00
2022-11-04T17:23:36.347Z,10.10
2022-11-04T17:26:03.353Z,10.10
2022-11-04T17:28:31.951Z,10.10
2022-11-04T17:30:58.968Z,10.10
2022-11-04T17:33:25.881Z,10.10
2022-11-04T17:35:52.977Z,10.10
2022-11-04T17:38:20.175Z,10.10
2022-11-04T17:41:05.909Z,10.10
2022-11-04T17:43:51.495Z,10.10
2022-11-04T17:46:36.982Z,10.10
2022-11-04T17:49:24.571Z,10.10
2022-11-04T17:51:54.887Z,10.10
2022-11-04T17:54:23.428Z,10.10
2022-11-04T17:56:50.507Z,10.10
2022-11-04T17:59:18.130Z,10.00
2022-11-04T18:01:46.038Z,10.10
2022-11-04T18:04:22.310Z,10.10
2022-11-04T18:06:50.323Z,10.00
2022-11-04T18:09:18.435Z,10.00
2022-11-04T18:12:04.992Z,10.10
2022-11-04T18:14:32.370Z,10.10
2022-11-04T18:16:59.771Z,10.10
2022-11-04T18:19:27.968Z,10.10
2022-11-04T18:21:55.127Z,10.00
2022-11-04T18:24:23.019Z,10.10
2022-11-04T18:26:50.519Z,10.10
2022-11-04T18:29:17.628Z,10.00
2022-11-04T18:31:49.040Z,10.10
2022-11-04T18:34:19.580Z,9.90
2022-11-04T18:36:47.936Z,9.90
2022-11-04T18:39:17.324Z,9.80
2022-11-04T18:41:44.495Z,9.80
2022-11-04T18:44:22.394Z,9.90
2022-11-04T18:46:50.005Z,9.90
2022-11-04T18:49:17.992Z,9.80
2022-11-04T18:51:45.250Z,9.80
2022-11-04T18:54:13.315Z,9.80
2022-11-04T18:56:40.894Z,9.70
2022-11-04T18:59:12.987Z,9.50
2022-11-04T19:01:40.078Z,9.60
2022-11-04T19:04:07.652Z,9.70
2022-11-04T19:06:39.205Z,9.60
2022-11-04T19:09:40.182Z,9.70
2022-11-04T19:12:16.264Z,9.50
2022-11-04T19:14:43.097Z,9.50
2022-11-04T19:17:09.952Z,9.50
2022-11-04T19:19:36.818Z,9.40
2022-11-04T19:22:03.674Z,9.50
2022-11-04T19:24:30.634Z,9.50
2022-11-04T19:26:57.522Z,9.50
2022-11-04T19:29:24.440Z,9.30
2022-11-04T19:31:51.624Z,9.40
2022-11-04T19:34:19.010Z,9.50
2022-11-04T19:36:45.901Z,9.50
2022-11-04T19:39:13.140Z,9.40
2022-11-04T19:41:58.421Z,9.30
2022-11-04T19:44:25.256Z,9.30
2022-11-04T19:46:52.667Z,9.30
2022-11-04T19:49:19.816Z,9.20
2022-11-04T19:51:46.767Z,9.20
2022-11-04T19:54:13.894Z,9.10
2022-11-04T19:56:41.093Z,9.10
2022-11-04T19:59:09.207Z,9.20
2022-11-04T20:01:36.811Z,9.10
2022-11-04T20:04:04.733Z,9.10
2022-11-04T20:06:33.212Z,9.00
2022-11-04T20:09:05.810Z,9.00
2022-11-04T20:11:57.376Z,9.00
2022-11-04T20:14:25.444Z,9.10
2022-11-04T20:16:52.890Z,9.10
2022-11-04T20:19:22.938Z,9.00
2022-11-04T20:21:50.634Z,9.00
2022-11-04T20:24:17.930Z,9.00
2022-11-04T20:26:46.687Z,9.00
2022-11-04T20:29:16.106Z,8.90
2022-11-04T20:31:44.523Z,8.90
2022-11-04T20:34:12.659Z,8.80
2022-11-04T20:36:40.605Z,8.90
2022-11-04T20:39:13.264Z,8.90
2022-11-04T20:41:40.538Z,8.70
2022-11-04T20:44:07.836Z,8.80
2022-11-04T20:46:34.979Z,8.80
2022-11-04T20:49:03.260Z,8.80
2022-11-04T20:51:33.066Z,8.70
2022-11-04T20:54:01.858Z,8.70
2022-11-04T20:56:34.116Z,8.70
2022-11-04T20:59:02.002Z,8.60
2022-11-04T21:01:34.637Z,8.70
2022-11-04T21:04:05.677Z,8.60
2022-11-04T21:06:34.966Z,8.60
2022-11-04T21:09:02.057Z,8.50
2022-11-04T21:11:32.184Z,8.60
2022-11-04T21:13:59.826Z,8.60
2022-11-04T21:16:27.331Z,8.60
2022-11-04T21:18:54.635Z,8.60
2022-11-04T21:21:21.492Z,8.60
2022-11-04T21:23:48.777Z,8.50
2022-11-04T21:26:21.812Z,8.50
2022-11-04T21:28:52.780Z,8.40
2022-11-04T21:31:19.635Z,8.50
2022-11-04T21:33:47.090Z,8.40
2022-11-04T21:36:14.363Z,8.50
2022-11-04T21:38:42.097Z,8.40
2022-11-04T21:41:15.220Z,8.50
2022-11-04T21:43:42.510Z,8.40
2022-11-04T21:46:14.643Z,8.30
2022-11-04T21:48:42.843Z,8.40
2022-11-04T21:51:15.511Z,8.40
2022-11-04T21:53:42.379Z,8.40
2022-11-04T21:56:12.396Z,8.20
2022-11-04T21:58:39.725Z,8.20
2022-11-04T22:01:08.431Z,8.30
2022-11-04T22:03:35.394Z,8.30
2022-11-04T22:06:13.412Z,8.20
2022-11-04T22:08:44.884Z,8.20
2022-11-04T22:11:14.496Z,8.20
2022-11-04T22:13:41.770Z,8.20
2022-11-04T22:16:19.076Z,8.20
2022-11-04T22:18:46.169Z,8.10
2022-11-04T22:21:18.074Z,8.00
2022-11-04T22:23:45.538Z,8.10
2022-11-04T22:26:18.664Z,8.10
2022-11-04T22:28:45.390Z,8.10
2022-11-04T22:31:21.574Z,8.20
2022-11-04T22:33:49.239Z,8.20
2022-11-04T22:36:16.088Z,8.10
2022-11-04T22:38:43.986Z,8.20
2022-11-04T22:41:13.641Z,8.00
2022-11-04T22:43:40.697Z,7.90
2022-11-04T22:46:22.890Z,7.90
2022-11-04T22:48:49.748Z,7.80
2022-11-04T22:51:16.597Z,7.90
2022-11-04T22:53:43.843Z,7.80
2022-11-04T22:56:12.989Z,7.60
2022-11-04T22:58:40.106Z,7.70
2022-11-04T23:01:12.186Z,7.70
2022-11-04T23:03:41.923Z,7.80
2022-11-04T23:06:10.303Z,7.80
2022-11-04T23:08:37.906Z,7.70
2022-11-04T23:11:27.175Z,7.70
2022-11-04T23:14:20.050Z,7.70
2022-11-04T23:17:08.338Z,7.70
2022-11-04T23:19:35.728Z,7.70
2022-11-04T23:22:21.424Z,7.80
2022-11-04T23:25:06.884Z,7.80
2022-11-04T23:28:02.880Z,7.80
2022-11-04T23:30:32.851Z,7.80
2022-11-04T23:33:02.324Z,7.80
2022-11-04T23:35:51.110Z,7.70
2022-11-04T23:38:18.402Z,7.60
2022-11-04T23:41:05.827Z,7.60
2022-11-04T23:43:32.927Z,7.60
2022-11-04T23:46:18.519Z,7.70
2022-11-04T23:49:03.948Z,7.60
2022-11-04T23:51:50.012Z,7.60
2022-11-04T23:54:35.261Z,7.50
2022-11-04T23:57:20.893Z,7.50
